createdAt,value
2022-11-22T00:00:49.192Z,-1.35
2022-11-22T00:03:16.667Z,-1.41
2022-11-22T00:05:44.164Z,-1.36
2022-11-22T00:08:11.657Z,-1.32
2022-11-22T00:10:39.433Z,-1.36
2022-11-22T00:13:06.986Z,-1.46
2022-11-22T00:15:34.431Z,-1.45
2022-11-22T00:18:02.305Z,-1.51
2022-11-22T00:20:29.863Z,-1.46
2022-11-22T00:22:58.456Z,-1.46
2022-11-22T00:25:26.808Z,-1.41
2022-11-22T00:27:55.059Z,-1.42
2022-11-22T00:30:22.552Z,-1.46
2022-11-22T00:32:50.006Z,-1.39
2022-11-22T00:35:17.480Z,-1.43
2022-11-22T00:37:45.060Z,-1.39
2022-11-22T00:40:12.691Z,-1.40
2022-11-22T00:42:40.433Z,-1.41
2022-11-22T00:45:08.371Z,-1.46
2022-11-22T00:47:36.023Z,-1.50
2022-11-22T00:50:04.924Z,-1.52
2022-11-22T00:52:32.634Z,-1.50
2022-11-22T00:55:02.541Z,-1.51
2022-11-22T00:57:31.160Z,-1.50
2022-11-22T01:00:00.884Z,-1.50
2022-11-22T01:02:28.403Z,-1.56
2022-11-22T01:04:58.093Z,-1.51
2022-11-22T01:07:25.653Z,-1.46
2022-11-22T01:09:53.165Z,-1.37
2022-11-22T01:12:20.992Z,-1.31
2022-11-22T01:14:48.524Z,-1.29
2022-11-22T01:17:16.159Z,-1.25
2022-11-22T01:19:43.823Z,-1.21
2022-11-22T01:22:11.339Z,-1.19
2022-11-22T01:24:41.370Z,-1.15
2022-11-22T01:27:08.927Z,-1.16
2022-11-22T01:29:43.718Z,-1.19
2022-11-22T01:32:11.151Z,-1.23
2022-11-22T01:34:38.682Z,-1.26
2022-11-22T01:37:06.309Z,-1.31
2022-11-22T01:39:33.852Z,-1.35
2022-11-22T01:42:01.299Z,-1.37
2022-11-22T01:44:32.147Z,-1.32
2022-11-22T01:47:24.041Z,-1.26
2022-11-22T01:49:56.256Z,-1.31
2022-11-22T01:52:27.991Z,-1.40
2022-11-22T01:55:07.319Z,-1.34
2022-11-22T01:57:38.871Z,-1.39
2022-11-22T02:00:10.940Z,-1.37
2022-11-22T02:02:50.868Z,-1.38
2022-11-22T02:05:21.491Z,-1.43
2022-11-22T02:08:13.603Z,-1.26
2022-11-22T02:10:46.930Z,-1.28
2022-11-22T02:13:16.326Z,-1.27
2022-11-22T02:16:04.267Z,-1.23
2022-11-22T02:18:35.443Z,-1.20
2022-11-22T02:21:04.368Z,-1.29
2022-11-22T02:23:38.284Z,-1.23
2022-11-22T02:26:06.060Z,-1.17
2022-11-22T02:28:37.745Z,-1.22
2022-11-22T02:31:05.702Z,-1.18
2022-11-22T02:33:33.502Z,-1.14
2022-11-22T02:36:01.453Z,-1.09
2022-11-22T02:38:35.124Z,-1.08
2022-11-22T02:41:08.828Z,-1.10
2022-11-22T02:43:39.976Z,-1.08
2022-11-22T02:46:10.515Z,-1.10
2022-11-22T02:48:42.333Z,-1.06
2022-11-22T02:51:10.323Z,-1.09
2022-11-22T02:53:38.028Z,-1.05
2022-11-22T02:56:05.709Z,-1.06
2022-11-22T02:58:33.292Z,-1.00
2022-11-22T03:01:00.886Z,-1.00
2022-11-22T03:03:28.476Z,-0.94
2022-11-22T03:05:55.950Z,-0.97
2022-11-22T03:08:23.503Z,-0.96
2022-11-22T03:10:50.958Z,-1.01
2022-11-22T03:13:18.528Z,-0.97
2022-11-22T03:15:49.305Z,-0.96
2022-11-22T03:18:16.767Z,-0.94
2022-11-22T03:20:44.270Z,-0.95
2022-11-22T03:23:11.825Z,-1.05
2022-11-22T03:25:40.189Z,-1.01
2022-11-22T03:28:07.887Z,-1.04
2022-11-22T03:30:40.301Z,-1.03
2022-11-22T03:33:07.903Z,-1.12
2022-11-22T03:35:35.386Z,-1.02
2022-11-22T03:38:03.475Z,-0.98
2022-11-22T03:40:31.052Z,-0.95
2022-11-22T03:43:00.419Z,-0.93
2022-11-22T03:45:31.426Z,-0.96
2022-11-22T03:47:58.922Z,-1.00
2022-11-22T03:50:26.434Z,-0.99
2022-11-22T03:52:54.072Z,-0.99
2022-11-22T03:55:21.516Z,-0.91
2022-11-22T03:57:49.070Z,-0.98
2022-11-22T04:00:16.702Z,-0.97
2022-11-22T04:02:44.565Z,-0.93
2022-11-22T04:05:12.055Z,-0.91
2022-11-22T04:07:39.806Z,-0.97
2022-11-22T04:10:08.090Z,-1.00
2022-11-22T04:12:36.124Z,-0.97
2022-11-22T04:15:06.832Z,-0.96
2022-11-22T04:17:44.644Z,-0.93
2022-11-22T04:20:35.136Z,-0.91
2022-11-22T04:23:05.691Z,-0.90
2022-11-22T04:25:35.553Z,-0.96
2022-11-22T04:28:04.693Z,-0.93
2022-11-22T04:30:50.884Z,-0.98
2022-11-22T04:33:18.980Z,-1.05
2022-11-22T04:35:46.938Z,-1.08
2022-11-22T04:38:16.119Z,-1.17
2022-11-22T04:40:44.560Z,-1.12
2022-11-22T04:43:37.815Z,-1.14
2022-11-22T04:46:05.710Z,-1.08
2022-11-22T04:48:33.516Z,-1.08
2022-11-22T04:51:19.985Z,-1.08
2022-11-22T04:53:47.550Z,-1.08
2022-11-22T04:56:15.316Z,-1.06
2022-11-22T04:58:42.877Z,-1.02
2022-11-22T05:01:11.404Z,-1.02
2022-11-22T05:03:42.885Z,-1.02
2022-11-22T05:06:13.593Z,-1.05
2022-11-22T05:08:41.711Z,-0.98
2022-11-22T05:11:09.146Z,-1.00
2022-11-22T05:13:39.346Z,-0.94
2022-11-22T05:16:10.880Z,-0.87
2022-11-22T05:18:39.408Z,-0.90
2022-11-22T05:21:14.781Z,-0.88
2022-11-22T05:23:54.860Z,-0.88
2022-11-22T05:26:27.242Z,-0.84
2022-11-22T05:28:55.226Z,-0.76
2022-11-22T05:31:24.820Z,-0.77
2022-11-22T05:33:54.436Z,-0.78
2022-11-22T05:36:22.438Z,-0.77
2022-11-22T05:38:50.707Z,-0.73
2022-11-22T05:41:19.195Z,-0.66
2022-11-22T05:43:46.810Z,-0.57
2022-11-22T05:46:23.840Z,-0.48
2022-11-22T05:48:53.704Z,-0.41
2022-11-22T05:51:24.231Z,-0.38
2022-11-22T05:53:53.139Z,-0.34
2022-11-22T05:56:23.411Z,-0.24
2022-11-22T05:58:51.607Z,-0.19
2022-11-22T06:01:21.907Z,-0.19
2022-11-22T06:03:50.544Z,-0.17
2022-11-22T06:06:20.955Z,-0.13
2022-11-22T06:08:49.007Z,-0.10
2022-11-22T06:11:22.318Z,-0.20
2022-11-22T06:13:59.872Z,-0.16
2022-11-22T06:16:27.635Z,-0.04
2022-11-22T06:18:55.486Z,-0.10
2022-11-22T06:21:25.175Z,-0.08
2022-11-22T06:23:56.099Z,0.03
2022-11-22T06:26:24.849Z,0.08
2022-11-22T06:28:54.011Z,0.10
2022-11-22T06:31:26.494Z,0.09
2022-11-22T06:34:00.699Z,0.15
2022-11-22T06:36:33.369Z,0.26
2022-11-22T06:39:02.681Z,0.33
2022-11-22T06:41:37.717Z,0.40
2022-11-22T06:44:07.390Z,0.42
2022-11-22T06:46:35.180Z,0.49
2022-11-22T06:49:03.225Z,0.51
2022-11-22T06:51:31.901Z,0.49
2022-11-22T06:53:59.616Z,0.42
2022-11-22T06:56:40.009Z,0.45
2022-11-22T06:59:08.573Z,0.38
2022-11-22T07:01:37.776Z,0.38
2022-11-22T07:04:05.904Z,0.43
2022-11-22T07:06:38.819Z,0.38
2022-11-22T07:09:09.696Z,0.32
2022-11-22T07:11:38.346Z,0.26
2022-11-22T07:14:08.715Z,0.20
2022-11-22T07:16:38.851Z,0.17
2022-11-22T07:19:07.223Z,0.12
2022-11-22T07:21:35.589Z,0.19
2022-11-22T07:24:05.377Z,0.25
2022-11-22T07:26:33.066Z,0.26
2022-11-22T07:29:00.630Z,0.26
2022-11-22T07:31:28.496Z,0.26
2022-11-22T07:33:57.732Z,0.32
2022-11-22T07:36:28.802Z,0.43
2022-11-22T07:38:56.654Z,0.46
2022-11-22T07:41:24.348Z,0.47
2022-11-22T07:43:53.143Z,0.57
2022-11-22T07:46:24.879Z,0.58
2022-11-22T07:48:52.389Z,0.60
2022-11-22T07:51:20.147Z,0.66
2022-11-22T07:53:48.354Z,0.77
2022-11-22T07:56:16.643Z,0.90
2022-11-22T07:58:44.178Z,0.89
2022-11-22T08:01:14.039Z,0.89
2022-11-22T08:03:41.780Z,0.92
2022-11-22T08:06:13.294Z,0.92
2022-11-22T08:08:41.253Z,0.99
2022-11-22T08:11:10.327Z,1.04
2022-11-22T08:13:37.950Z,0.93
2022-11-22T08:16:09.429Z,0.92
2022-11-22T08:18:38.618Z,0.96
2022-11-22T08:21:11.505Z,0.96
2022-11-22T08:23:39.793Z,1.00
2022-11-22T08:26:09.347Z,1.03
2022-11-22T08:28:37.122Z,1.04
2022-11-22T08:31:08.644Z,1.13
2022-11-22T08:33:36.787Z,1.06
2022-11-22T08:36:04.722Z,1.09
2022-11-22T08:38:32.699Z,1.09
2022-11-22T08:41:00.356Z,1.11
2022-11-22T08:43:27.805Z,1.14
2022-11-22T08:45:57.519Z,1.21
2022-11-22T08:48:26.664Z,1.30
2022-11-22T08:50:57.226Z,1.30
2022-11-22T08:53:25.642Z,1.28
2022-11-22T08:55:54.096Z,1.25
2022-11-22T08:58:22.579Z,1.31
2022-11-22T09:00:50.167Z,1.26
2022-11-22T09:03:17.623Z,1.29
2022-11-22T09:08:36.383Z,1.45
2022-11-22T09:11:08.354Z,1.49
2022-11-22T09:13:36.194Z,1.49
2022-11-22T09:16:05.566Z,1.52
2022-11-22T09:18:33.614Z,1.56
2022-11-22T09:21:05.813Z,1.56
2022-11-22T09:23:34.147Z,1.61
2022-11-22T09:26:10.051Z,1.62
2022-11-22T09:28:41.195Z,1.65
2022-11-22T09:31:16.424Z,1.72
2022-11-22T09:33:49.422Z,1.68
2022-11-22T09:36:22.644Z,1.65
2022-11-22T09:38:51.393Z,1.59
2022-11-22T09:41:26.031Z,1.62
2022-11-22T09:44:08.490Z,1.58
2022-11-22T09:46:50.961Z,1.68
2022-11-22T09:49:18.411Z,1.66
2022-11-22T09:52:03.746Z,1.77
2022-11-22T09:54:40.712Z,1.73
2022-11-22T09:57:31.297Z,1.75
2022-11-22T10:00:06.807Z,1.82
2022-11-22T10:02:59.886Z,1.90
2022-11-22T10:05:32.373Z,2.09
2022-11-22T10:08:23.988Z,1.90
2022-11-22T10:10:55.736Z,1.89
2022-11-22T10:13:31.761Z,1.94
2022-11-22T10:16:14.701Z,1.98
2022-11-22T10:18:55.789Z,2.00
2022-11-22T10:21:23.309Z,2.02
2022-11-22T10:23:50.905Z,1.95
2022-11-22T10:26:33.210Z,2.05
2022-11-22T10:29:20.931Z,2.07
2022-11-22T10:32:16.278Z,2.12
2022-11-22T10:34:43.638Z,2.11
2022-11-22T10:37:40.227Z,2.14
2022-11-22T10:40:40.906Z,2.25
2022-11-22T10:43:14.177Z,2.27
2022-11-22T10:45:47.392Z,2.28
2022-11-22T10:48:39.046Z,2.33
2022-11-22T10:51:29.438Z,2.37
2022-11-22T10:54:24.650Z,2.40
2022-11-22T10:57:12.498Z,2.41
2022-11-22T10:59:54.938Z,2.42
2022-11-22T11:03:13.423Z,2.52
2022-11-22T11:06:21.062Z,2.47
2022-11-22T11:09:36.320Z,2.45
2022-11-22T11:11:38.691Z,2.66
2022-11-22T11:14:19.301Z,2.56
2022-11-22T11:16:47.597Z,2.46
2022-11-22T11:19:22.554Z,2.46
2022-11-22T11:22:26.103Z,2.45
2022-11-22T11:25:31.226Z,2.48
2022-11-22T11:28:30.916Z,2.53
2022-11-22T11:31:10.198Z,2.49
2022-11-22T11:33:40.256Z,2.39
2022-11-22T11:36:22.276Z,2.37
2022-11-22T11:38:55.842Z,2.27
2022-11-22T11:41:37.315Z,2.25
2022-11-22T11:44:29.311Z,2.30
2022-11-22T11:46:58.504Z,2.20
2022-11-22T11:49:29.382Z,2.15
2022-11-22T11:52:08.480Z,2.19
2022-11-22T11:54:38.646Z,2.13
2022-11-22T11:57:11.887Z,2.11
2022-11-22T11:59:39.450Z,2.12
2022-11-22T12:02:29.500Z,2.11
2022-11-22T12:05:01.786Z,2.20
2022-11-22T12:07:34.120Z,2.22
2022-11-22T12:10:22.766Z,2.16
2022-11-22T12:13:02.883Z,2.11
2022-11-22T12:15:50.337Z,2.15
2022-11-22T12:18:43.227Z,2.12
2022-11-22T12:21:35.446Z,2.09
2022-11-22T12:24:41.357Z,2.03
2022-11-22T12:27:02.213Z,2.07
2022-11-22T12:29:33.763Z,2.10
2022-11-22T12:32:08.346Z,2.11
2022-11-22T12:34:57.741Z,2.23
2022-11-22T12:37:41.635Z,2.30
2022-11-22T12:40:24.320Z,2.35
2022-11-22T12:43:00.847Z,2.39
2022-11-22T12:45:33.794Z,2.32
2022-11-22T12:48:07.423Z,2.34
2022-11-22T12:50:40.400Z,2.37
2022-11-22T12:53:14.634Z,2.45
2022-11-22T12:56:06.315Z,2.53
2022-11-22T12:58:41.649Z,2.50
2022-11-22T13:01:12.112Z,2.48
2022-11-22T13:03:49.320Z,2.48
2022-11-22T13:06:22.785Z,2.48
2022-11-22T13:09:04.189Z,2.53
2022-11-22T13:11:59.091Z,2.56
2022-11-22T13:14:38.461Z,2.57
2022-11-22T13:17:12.121Z,2.53
2022-11-22T13:20:08.497Z,2.61
2022-11-22T13:23:02.987Z,2.50
2022-11-22T13:25:40.858Z,2.42
2022-11-22T13:28:14.883Z,2.39
2022-11-22T13:31:11.794Z,2.44
2022-11-22T13:33:43.400Z,2.33
2022-11-22T13:36:31.942Z,2.40
2022-11-22T13:39:12.499Z,2.37
2022-11-22T13:41:58.324Z,2.28
2022-11-22T13:44:28.163Z,2.33
2022-11-22T13:47:06.006Z,2.31
2022-11-22T13:49:48.614Z,2.46
2022-11-22T13:52:16.159Z,2.24
2022-11-22T13:54:46.591Z,2.14
2022-11-22T13:57:34.701Z,2.17
2022-11-22T14:00:14.405Z,2.19
2022-11-22T14:02:51.220Z,2.18
2022-11-22T14:05:26.642Z,2.27
2022-11-22T14:07:59.638Z,2.26
2022-11-22T14:10:36.239Z,2.28
2022-11-22T14:13:52.306Z,2.37
2022-11-22T14:16:31.667Z,2.37
2022-11-22T14:19:17.756Z,2.46
2022-11-22T14:21:54.214Z,2.33
2022-11-22T14:25:03.778Z,2.39
2022-11-22T14:27:48.820Z,2.37
2022-11-22T14:30:18.661Z,2.31
2022-11-22T14:32:50.005Z,2.29
2022-11-22T14:35:27.935Z,2.38
2022-11-22T14:38:19.124Z,2.35
2022-11-22T14:40:48.096Z,2.33
2022-11-22T14:43:25.648Z,2.34
2022-11-22T14:45:59.579Z,2.30
2022-11-22T14:48:43.813Z,2.38
2022-11-22T14:51:32.073Z,2.43
2022-11-22T14:54:02.193Z,2.38
2022-11-22T14:56:32.628Z,2.40
2022-11-22T14:59:26.931Z,2.55
2022-11-22T15:02:13.099Z,2.48
2022-11-22T15:09:11.235Z,2.54
2022-11-22T15:09:17.047Z,2.61
2022-11-22T15:11:40.686Z,2.55
2022-11-22T15:14:26.812Z,2.58
2022-11-22T15:57:39.070Z,2.64
2022-11-22T16:00:27.759Z,2.61
2022-11-22T16:03:06.854Z,2.60
2022-11-22T16:06:09.145Z,2.61
2022-11-22T16:08:29.349Z,2.68
2022-11-22T16:11:00.601Z,2.70
2022-11-22T16:13:32.880Z,2.70
2022-11-22T16:16:17.612Z,2.74
2022-11-22T16:18:46.049Z,2.76
2022-11-22T16:21:16.308Z,2.74
2022-11-22T16:23:48.355Z,2.73
2022-11-22T16:26:29.573Z,2.73
2022-11-22T16:29:19.221Z,2.83
2022-11-22T16:31:46.788Z,2.71
2022-11-22T16:34:15.253Z,2.69
2022-11-22T16:36:42.840Z,2.74
2022-11-22T16:39:10.292Z,2.75
2022-11-22T16:41:37.852Z,2.72
2022-11-22T16:44:13.724Z,2.77
2022-11-22T16:46:41.807Z,2.75
2022-11-22T16:49:18.590Z,2.77
2022-11-22T16:51:48.166Z,2.76
2022-11-22T16:54:18.716Z,2.83
2022-11-22T16:56:46.592Z,2.78
2022-11-22T16:59:14.071Z,2.79
2022-11-22T17:01:44.923Z,2.83
2022-11-22T17:04:23.931Z,2.90
2022-11-22T17:06:51.933Z,2.84
2022-11-22T17:09:20.012Z,2.85
2022-11-22T17:11:47.805Z,2.88
2022-11-22T17:14:16.628Z,2.86
2022-11-22T17:16:45.960Z,2.83
2022-11-22T17:19:30.214Z,2.85
2022-11-22T17:22:01.181Z,2.87
2022-11-22T17:24:29.194Z,2.87
2022-11-22T17:26:57.097Z,2.81
2022-11-22T17:32:13.653Z,2.74
2022-11-22T17:34:41.225Z,2.69
2022-11-22T17:37:12.899Z,2.69
2022-11-22T17:39:40.954Z,2.63
2022-11-22T17:42:08.584Z,2.63
2022-11-22T17:44:36.072Z,2.60
2022-11-22T17:47:03.705Z,2.56
2022-11-22T17:49:31.456Z,2.59
2022-11-22T17:51:59.074Z,2.62
2022-11-22T17:54:26.488Z,2.66
2022-11-22T17:56:54.028Z,2.71
2022-11-22T17:59:21.682Z,2.77
2022-11-22T18:01:49.299Z,2.77
2022-11-22T18:04:17.677Z,2.74
2022-11-22T18:06:45.220Z,2.71
2022-11-22T18:09:12.945Z,2.77
2022-11-22T18:11:40.427Z,2.78
2022-11-22T18:14:07.964Z,2.78
2022-11-22T18:16:35.368Z,2.78
2022-11-22T18:19:05.885Z,2.82
2022-11-22T18:21:33.505Z,2.77
2022-11-22T18:24:01.560Z,2.84
2022-11-22T18:26:44.645Z,2.88
2022-11-22T18:32:01.960Z,2.92
2022-11-22T18:34:30.741Z,2.92
2022-11-22T18:37:02.446Z,2.91
2022-11-22T18:39:32.806Z,2.87
2022-11-22T18:42:00.590Z,2.88
2022-11-22T18:44:28.187Z,2.81
2022-11-22T18:46:55.950Z,2.89
2022-11-22T18:49:23.550Z,2.87
2022-11-22T18:51:51.289Z,2.82
2022-11-22T18:54:19.887Z,2.80
2022-11-22T18:56:47.396Z,2.81
2022-11-22T18:59:14.913Z,2.82
2022-11-22T19:01:42.416Z,2.87
2022-11-22T19:04:13.996Z,2.90
2022-11-22T19:06:42.314Z,2.87
2022-11-22T19:09:10.516Z,2.84
2022-11-22T19:11:38.404Z,2.87
2022-11-22T19:14:06.471Z,2.90
2022-11-22T19:16:34.151Z,2.90
2022-11-22T19:19:01.795Z,2.86
2022-11-22T19:21:30.019Z,2.84
2022-11-22T19:23:57.938Z,2.85
2022-11-22T19:26:27.245Z,2.91
2022-11-22T19:28:56.358Z,2.90
2022-11-22T19:31:31.510Z,2.89
2022-11-22T19:33:59.832Z,2.90
2022-11-22T19:36:33.418Z,2.87
2022-11-22T19:39:05.596Z,2.90
2022-11-22T19:41:33.562Z,2.86
2022-11-22T19:44:01.189Z,2.86
2022-11-22T19:46:29.978Z,2.78
2022-11-22T19:48:59.358Z,2.82
2022-11-22T19:51:29.214Z,2.82
2022-11-22T19:54:04.622Z,2.83
2022-11-22T19:56:34.524Z,2.78
2022-11-22T19:59:04.261Z,2.85
2022-11-22T20:01:33.651Z,2.89
2022-11-22T20:04:04.836Z,2.84
2022-11-22T20:06:33.971Z,2.85
2022-11-22T20:09:09.959Z,2.90
2022-11-22T20:11:46.064Z,2.88
2022-11-22T20:14:13.654Z,2.89
2022-11-22T20:16:41.819Z,2.91
2022-11-22T20:19:11.530Z,2.90
2022-11-22T20:21:40.053Z,2.90
2022-11-22T20:24:08.442Z,2.88
2022-11-22T20:26:36.637Z,2.89
2022-11-22T20:29:06.630Z,2.93
2022-11-22T20:31:37.347Z,2.95
2022-11-22T20:34:05.081Z,2.98
2022-11-22T20:36:35.092Z,3.01
2022-11-22T20:39:08.560Z,3.04
2022-11-22T20:41:38.884Z,3.08
2022-11-22T20:44:07.290Z,3.18
2022-11-22T20:46:37.876Z,3.15
2022-11-22T20:49:05.468Z,3.08
2022-11-22T20:51:36.062Z,3.11
2022-11-22T20:54:03.785Z,3.10
2022-11-22T20:56:31.310Z,3.16
2022-11-22T20:58:59.413Z,3.18
2022-11-22T21:01:29.320Z,3.21
2022-11-22T21:03:57.508Z,3.21
2022-11-22T21:06:29.519Z,3.23
2022-11-22T21:08:57.101Z,3.20
2022-11-22T21:11:29.029Z,3.19
2022-11-22T21:13:57.551Z,3.23
2022-11-22T21:16:29.708Z,3.28
2022-11-22T21:19:02.602Z,3.26
2022-11-22T21:21:31.268Z,3.23
2022-11-22T21:24:00.983Z,3.26
2022-11-22T21:26:29.627Z,3.30
2022-11-22T21:28:57.651Z,3.26
2022-11-22T21:31:25.933Z,3.32
2022-11-22T21:33:53.900Z,3.33
2022-11-22T21:36:22.118Z,3.38
2022-11-22T21:38:49.663Z,3.38
2022-11-22T21:44:07.393Z,3.35
2022-11-22T21:46:34.994Z,3.38
2022-11-22T21:49:02.537Z,3.38
2022-11-22T21:51:32.574Z,3.39
2022-11-22T21:54:01.649Z,3.41
2022-11-22T21:56:29.659Z,3.39
2022-11-22T21:58:57.664Z,3.41
2022-11-22T22:01:26.375Z,3.42
2022-11-22T22:03:54.268Z,3.40
2022-11-22T22:06:22.175Z,3.39
2022-11-22T22:08:49.689Z,3.43
2022-11-22T22:11:17.463Z,3.44
2022-11-22T22:13:45.021Z,3.46
2022-11-22T22:16:18.726Z,3.44
2022-11-22T22:18:47.628Z,3.49
2022-11-22T22:21:16.531Z,3.49
2022-11-22T22:23:45.370Z,3.45
2022-11-22T22:26:15.754Z,3.44
2022-11-22T22:28:45.323Z,3.41
2022-11-22T22:31:22.446Z,3.44
2022-11-22T22:33:55.130Z,3.42
2022-11-22T22:36:24.190Z,3.40
2022-11-22T22:38:52.281Z,3.31
2022-11-22T22:41:19.754Z,3.33
2022-11-22T22:43:49.042Z,3.30
2022-11-22T22:46:22.415Z,3.33
2022-11-22T22:48:50.585Z,3.28
2022-11-22T22:51:27.487Z,3.28
2022-11-22T22:53:58.261Z,3.23
2022-11-22T22:56:27.900Z,3.22
2022-11-22T22:58:56.596Z,3.19
2022-11-22T23:01:28.112Z,3.16
2022-11-22T23:03:57.777Z,3.15
2022-11-22T23:06:29.741Z,3.07
2022-11-22T23:08:57.630Z,3.10
2022-11-22T23:11:46.575Z,3.07
2022-11-22T23:14:17.561Z,3.12
2022-11-22T23:16:45.722Z,3.11
2022-11-22T23:19:13.670Z,3.14
2022-11-22T23:21:41.184Z,3.15
2022-11-22T23:24:09.462Z,3.16
2022-11-22T23:26:37.352Z,3.12
2022-11-22T23:29:05.576Z,3.16
2022-11-22T23:31:33.184Z,3.17
2022-11-22T23:34:04.804Z,3.16
2022-11-22T23:36:40.289Z,3.11
2022-11-22T23:39:09.237Z,3.11
2022-11-22T23:41:36.872Z,3.12
2022-11-22T23:44:04.526Z,3.10
2022-11-22T23:46:32.218Z,3.15
2022-11-22T23:49:01.068Z,3.17
2022-11-22T23:51:30.710Z,3.21
2022-11-22T23:54:04.466Z,3.23
2022-11-22T23:56:33.668Z,3.27
2022-11-22T23:59:02.315Z,3.31
